Terminal Aerodrome Forecast
Issued by NWS

Home | Current Version | Previous Version | Text Only | Print | Product List | Glossary On
Versions: 1 2 3 4 5 6 7 8 9 10 11 12 13 14
506
FTUS44 KBMX 060703 AAA
TAFEET
TAF AMD
KEET 060703Z 0607/0706 09006KT 4SM -RA OVC003
     FM060900 13008KT 4SM -RA BR VCTS OVC003CB
     FM061100 18010KT 6SM -DZ BR VCTS OVC003CB
     FM061600 26010KT P6SM OVC010
     FM062300 30008KT P6SM OVC007=

USA.gov is the U.S. government's official web portal to all federal, state and local government web resources and services.